<?xml version="1.0" encoding="UTF-8" standalone="no" ?>
<gpx xmlns="http://www.topografix.com/GPX/1/1" xmlns:xsi="http://www.w3.org/2001/XMLSchema-instance" xsi:schemaLocation="http://www.topografix.com/GPX/1/1 http://www.topografix.com/GPX/1/1/gpx.xsd" version="1.1" creator="VisuGPX - https://www.visugpx.com">
  <metadata>
    <name>2020-03-04 - Rombach-le-Franc</name>
    <desc><![CDATA[Club vosgien Colmar. 20 participants. Guide : Daniel Jaegert]]></desc>
  </metadata>
  <trk>
    <name><![CDATA[4 mars 2020]]></name>
    <trkseg>
      <trkpt lat="48.28158" lon="7.26464">
        <ele>302.6</ele>
      </trkpt>
      <trkpt lat="48.28179" lon="7.26431">
        <ele>305.2</ele>
      </trkpt>
      <trkpt lat="48.282" lon="7.26411">
        <ele>294</ele>
        <time>2020-03-04T08:30:21Z</time>
      </trkpt>
      <trkpt lat="48.28237" lon="7.26382">
        <ele>288</ele>
        <time>2020-03-04T08:31:06Z</time>
      </trkpt>
      <trkpt lat="48.28261" lon="7.26337">
        <ele>295</ele>
        <time>2020-03-04T08:31:35Z</time>
      </trkpt>
      <trkpt lat="48.28293" lon="7.26296">
        <ele>286</ele>
        <time>2020-03-04T08:32:15Z</time>
      </trkpt>
      <trkpt lat="48.28332" lon="7.26185">
        <ele>309</ele>
        <time>2020-03-04T08:33:45Z</time>
      </trkpt>
      <trkpt lat="48.28365" lon="7.2613">
        <ele>299</ele>
        <time>2020-03-04T08:34:25Z</time>
      </trkpt>
      <trkpt lat="48.2841" lon="7.26094">
        <ele>315</ele>
        <time>2020-03-04T08:35:13Z</time>
      </trkpt>
      <trkpt lat="48.28442" lon="7.26063">
        <ele>307</ele>
        <time>2020-03-04T08:35:40Z</time>
      </trkpt>
      <trkpt lat="48.28445" lon="7.26005">
        <ele>308</ele>
        <time>2020-03-04T08:36:05Z</time>
      </trkpt>
      <trkpt lat="48.28446" lon="7.25928">
        <ele>303</ele>
        <time>2020-03-04T08:36:45Z</time>
      </trkpt>
      <trkpt lat="48.2846" lon="7.25902">
        <ele>294</ele>
        <time>2020-03-04T08:37:09Z</time>
      </trkpt>
      <trkpt lat="48.28485" lon="7.25878">
        <ele>291</ele>
        <time>2020-03-04T08:37:31Z</time>
      </trkpt>
      <trkpt lat="48.2852" lon="7.25871">
        <ele>299</ele>
        <time>2020-03-04T08:38:17Z</time>
      </trkpt>
      <trkpt lat="48.28564" lon="7.25853">
        <ele>316</ele>
        <time>2020-03-04T08:38:58Z</time>
      </trkpt>
      <trkpt lat="48.28584" lon="7.25824">
        <ele>312</ele>
        <time>2020-03-04T08:39:20Z</time>
      </trkpt>
      <trkpt lat="48.28626" lon="7.25794">
        <ele>295</ele>
        <time>2020-03-04T08:40:04Z</time>
      </trkpt>
      <trkpt lat="48.28657" lon="7.25777">
        <ele>305</ele>
        <time>2020-03-04T08:40:26Z</time>
      </trkpt>
      <trkpt lat="48.28674" lon="7.25745">
        <ele>309</ele>
        <time>2020-03-04T08:40:48Z</time>
      </trkpt>
      <trkpt lat="48.28708" lon="7.2575">
        <ele>314</ele>
        <time>2020-03-04T08:41:11Z</time>
      </trkpt>
      <trkpt lat="48.28725" lon="7.25709">
        <ele>315</ele>
        <time>2020-03-04T08:41:32Z</time>
      </trkpt>
      <trkpt lat="48.28774" lon="7.25726">
        <ele>320</ele>
        <time>2020-03-04T08:42:16Z</time>
      </trkpt>
      <trkpt lat="48.28874" lon="7.2569">
        <ele>357</ele>
        <time>2020-03-04T08:43:47Z</time>
      </trkpt>
      <trkpt lat="48.28911" lon="7.25677">
        <ele>358</ele>
        <time>2020-03-04T08:44:11Z</time>
      </trkpt>
      <trkpt lat="48.28949" lon="7.25705">
        <ele>361</ele>
        <time>2020-03-04T08:44:54Z</time>
      </trkpt>
      <trkpt lat="48.29012" lon="7.25711">
        <ele>371.2</ele>
      </trkpt>
      <trkpt lat="48.29051" lon="7.25794">
        <ele>367</ele>
        <time>2020-03-04T08:46:32Z</time>
      </trkpt>
      <trkpt lat="48.29063" lon="7.25821">
        <ele>365</ele>
      </trkpt>
      <trkpt lat="48.29093" lon="7.25819">
        <ele>359</ele>
        <time>2020-03-04T08:47:33Z</time>
      </trkpt>
      <trkpt lat="48.2912" lon="7.25754">
        <ele>354</ele>
        <time>2020-03-04T08:48:19Z</time>
      </trkpt>
      <trkpt lat="48.29151" lon="7.25726">
        <ele>360</ele>
        <time>2020-03-04T08:48:40Z</time>
      </trkpt>
      <trkpt lat="48.29224" lon="7.25637">
        <ele>396.9</ele>
      </trkpt>
      <trkpt lat="48.29244" lon="7.25602">
        <ele>365</ele>
        <time>2020-03-04T08:50:37Z</time>
      </trkpt>
      <trkpt lat="48.29268" lon="7.25578">
        <ele>397.6</ele>
      </trkpt>
      <trkpt lat="48.29329" lon="7.25529">
        <ele>402.6</ele>
      </trkpt>
      <trkpt lat="48.29384" lon="7.25497">
        <ele>412.3</ele>
      </trkpt>
      <trkpt lat="48.29435" lon="7.25475">
        <ele>371</ele>
        <time>2020-03-04T08:53:45Z</time>
      </trkpt>
      <trkpt lat="48.29552" lon="7.25384">
        <ele>411</ele>
        <time>2020-03-04T08:55:59Z</time>
      </trkpt>
      <trkpt lat="48.29611" lon="7.25374">
        <ele>413</ele>
        <time>2020-03-04T08:56:45Z</time>
      </trkpt>
      <trkpt lat="48.29669" lon="7.25362">
        <ele>403</ele>
        <time>2020-03-04T08:58:43Z</time>
      </trkpt>
      <trkpt lat="48.29709" lon="7.25277">
        <ele>403</ele>
        <time>2020-03-04T08:59:28Z</time>
      </trkpt>
      <trkpt lat="48.29762" lon="7.25253">
        <ele>413</ele>
        <time>2020-03-04T09:00:37Z</time>
      </trkpt>
      <trkpt lat="48.29802" lon="7.25186">
        <ele>452</ele>
      </trkpt>
      <trkpt lat="48.29792" lon="7.25103">
        <ele>467.4</ele>
      </trkpt>
      <trkpt lat="48.29767" lon="7.25062">
        <ele>473.3</ele>
      </trkpt>
      <trkpt lat="48.29741" lon="7.24967">
        <ele>479.6</ele>
      </trkpt>
      <trkpt lat="48.29723" lon="7.25018">
        <ele>481</ele>
      </trkpt>
      <trkpt lat="48.29725" lon="7.25169">
        <ele>447</ele>
        <time>2020-03-04T09:09:47Z</time>
      </trkpt>
      <trkpt lat="48.29665" lon="7.25023">
        <ele>480</ele>
        <time>2020-03-04T09:10:23Z</time>
      </trkpt>
      <trkpt lat="48.29615" lon="7.24977">
        <ele>473</ele>
        <time>2020-03-04T09:11:31Z</time>
      </trkpt>
      <trkpt lat="48.29598" lon="7.24982">
        <ele>516</ele>
      </trkpt>
      <trkpt lat="48.296" lon="7.2493">
        <ele>519.6</ele>
      </trkpt>
      <trkpt lat="48.29618" lon="7.24872">
        <ele>492</ele>
        <time>2020-03-04T09:13:54Z</time>
      </trkpt>
      <trkpt lat="48.29646" lon="7.2476">
        <ele>508</ele>
        <time>2020-03-04T09:14:59Z</time>
      </trkpt>
      <trkpt lat="48.29667" lon="7.24744">
        <ele>510</ele>
        <time>2020-03-04T09:15:19Z</time>
      </trkpt>
      <trkpt lat="48.29695" lon="7.24691">
        <ele>531</ele>
        <time>2020-03-04T09:16:05Z</time>
      </trkpt>
      <trkpt lat="48.29759" lon="7.24664">
        <ele>522</ele>
        <time>2020-03-04T09:23:13Z</time>
      </trkpt>
      <trkpt lat="48.29778" lon="7.24691">
        <ele>528</ele>
        <time>2020-03-04T09:23:32Z</time>
      </trkpt>
      <trkpt lat="48.29812" lon="7.24687">
        <ele>534</ele>
        <time>2020-03-04T09:24:19Z</time>
      </trkpt>
      <trkpt lat="48.29868" lon="7.24689">
        <ele>533</ele>
        <time>2020-03-04T09:25:04Z</time>
      </trkpt>
      <trkpt lat="48.29906" lon="7.24683">
        <ele>532</ele>
        <time>2020-03-04T09:25:46Z</time>
      </trkpt>
      <trkpt lat="48.29936" lon="7.24625">
        <ele>540</ele>
        <time>2020-03-04T09:26:41Z</time>
      </trkpt>
      <trkpt lat="48.29992" lon="7.24567">
        <ele>562</ele>
        <time>2020-03-04T09:27:51Z</time>
      </trkpt>
      <trkpt lat="48.30022" lon="7.24599">
        <ele>568</ele>
        <time>2020-03-04T09:28:38Z</time>
      </trkpt>
      <trkpt lat="48.30023" lon="7.24677">
        <ele>575.9</ele>
      </trkpt>
      <trkpt lat="48.30032" lon="7.24728">
        <ele>571</ele>
        <time>2020-03-04T09:29:52Z</time>
      </trkpt>
      <trkpt lat="48.30058" lon="7.24751">
        <ele>561</ele>
        <time>2020-03-04T09:30:40Z</time>
      </trkpt>
      <trkpt lat="48.30068" lon="7.24781">
        <ele>566</ele>
        <time>2020-03-04T09:33:30Z</time>
      </trkpt>
      <trkpt lat="48.30079" lon="7.24828">
        <ele>549</ele>
        <time>2020-03-04T09:34:16Z</time>
      </trkpt>
      <trkpt lat="48.30089" lon="7.2487">
        <ele>549</ele>
        <time>2020-03-04T09:35:01Z</time>
      </trkpt>
      <trkpt lat="48.3012" lon="7.24857">
        <ele>555</ele>
        <time>2020-03-04T09:35:24Z</time>
      </trkpt>
      <trkpt lat="48.30144" lon="7.24874">
        <ele>567</ele>
        <time>2020-03-04T09:36:08Z</time>
      </trkpt>
      <trkpt lat="48.30192" lon="7.24855">
        <ele>575</ele>
        <time>2020-03-04T09:36:54Z</time>
      </trkpt>
      <trkpt lat="48.30249" lon="7.24904">
        <ele>580</ele>
        <time>2020-03-04T09:37:33Z</time>
      </trkpt>
      <trkpt lat="48.30255" lon="7.24996">
        <ele>599</ele>
        <time>2020-03-04T09:38:45Z</time>
      </trkpt>
      <trkpt lat="48.30238" lon="7.25049">
        <ele>603</ele>
        <time>2020-03-04T09:39:09Z</time>
      </trkpt>
      <trkpt lat="48.30254" lon="7.25152">
        <ele>616.7</ele>
      </trkpt>
      <trkpt lat="48.3028" lon="7.2516">
        <ele>609</ele>
        <time>2020-03-04T09:40:42Z</time>
      </trkpt>
      <trkpt lat="48.30302" lon="7.25164">
        <ele>607</ele>
        <time>2020-03-04T09:41:07Z</time>
      </trkpt>
      <trkpt lat="48.30344" lon="7.25195">
        <ele>608</ele>
        <time>2020-03-04T09:41:32Z</time>
      </trkpt>
      <trkpt lat="48.30355" lon="7.2525">
        <ele>543</ele>
        <time>2020-03-04T09:42:15Z</time>
      </trkpt>
      <trkpt lat="48.30395" lon="7.25246">
        <ele>589</ele>
        <time>2020-03-04T09:42:53Z</time>
      </trkpt>
      <trkpt lat="48.30463" lon="7.25253">
        <ele>585</ele>
        <time>2020-03-04T09:44:08Z</time>
      </trkpt>
      <trkpt lat="48.30507" lon="7.2529">
        <ele>589</ele>
        <time>2020-03-04T09:44:30Z</time>
      </trkpt>
      <trkpt lat="48.30519" lon="7.25325">
        <ele>599</ele>
        <time>2020-03-04T09:44:51Z</time>
      </trkpt>
      <trkpt lat="48.30525" lon="7.25397">
        <ele>595</ele>
        <time>2020-03-04T09:45:35Z</time>
      </trkpt>
      <trkpt lat="48.30491" lon="7.25446">
        <ele>607</ele>
        <time>2020-03-04T09:45:58Z</time>
      </trkpt>
      <trkpt lat="48.30484" lon="7.25496">
        <ele>504</ele>
        <time>2020-03-04T09:46:21Z</time>
      </trkpt>
      <trkpt lat="48.30462" lon="7.25574">
        <ele>549</ele>
        <time>2020-03-04T09:47:00Z</time>
      </trkpt>
      <trkpt lat="48.3048" lon="7.25593">
        <ele>575</ele>
        <time>2020-03-04T09:47:23Z</time>
      </trkpt>
      <trkpt lat="48.30468" lon="7.25648">
        <ele>590</ele>
        <time>2020-03-04T09:47:45Z</time>
      </trkpt>
      <trkpt lat="48.30459" lon="7.2571">
        <ele>590</ele>
        <time>2020-03-04T09:48:30Z</time>
      </trkpt>
      <trkpt lat="48.30466" lon="7.25801">
        <ele>619</ele>
      </trkpt>
      <trkpt lat="48.30494" lon="7.25859">
        <ele>618.8</ele>
      </trkpt>
      <trkpt lat="48.30507" lon="7.25922">
        <ele>605</ele>
        <time>2020-03-04T09:52:14Z</time>
      </trkpt>
      <trkpt lat="48.30541" lon="7.25864">
        <ele>632.1</ele>
      </trkpt>
      <trkpt lat="48.30564" lon="7.25789">
        <ele>635</ele>
        <time>2020-03-04T09:55:53Z</time>
      </trkpt>
      <trkpt lat="48.30578" lon="7.25757">
        <ele>639</ele>
        <time>2020-03-04T09:56:30Z</time>
      </trkpt>
      <trkpt lat="48.30598" lon="7.25722">
        <ele>615</ele>
        <time>2020-03-04T09:57:42Z</time>
      </trkpt>
      <trkpt lat="48.3063" lon="7.2569">
        <ele>546</ele>
        <time>2020-03-04T09:58:27Z</time>
      </trkpt>
      <trkpt lat="48.30636" lon="7.25653">
        <ele>660</ele>
        <time>2020-03-04T10:02:20Z</time>
      </trkpt>
      <trkpt lat="48.30635" lon="7.256">
        <ele>668</ele>
        <time>2020-03-04T10:03:50Z</time>
      </trkpt>
      <trkpt lat="48.30618" lon="7.25532">
        <ele>654</ele>
        <time>2020-03-04T10:05:30Z</time>
      </trkpt>
      <trkpt lat="48.30615" lon="7.25447">
        <ele>658</ele>
        <time>2020-03-04T10:06:16Z</time>
      </trkpt>
      <trkpt lat="48.30614" lon="7.25403">
        <ele>675</ele>
        <time>2020-03-04T10:06:44Z</time>
      </trkpt>
      <trkpt lat="48.30614" lon="7.25337">
        <ele>684</ele>
        <time>2020-03-04T10:08:14Z</time>
      </trkpt>
      <trkpt lat="48.30599" lon="7.25309">
        <ele>686</ele>
        <time>2020-03-04T10:08:29Z</time>
      </trkpt>
      <trkpt lat="48.30595" lon="7.25268">
        <ele>689</ele>
        <time>2020-03-04T10:09:15Z</time>
      </trkpt>
      <trkpt lat="48.30577" lon="7.25239">
        <ele>685</ele>
        <time>2020-03-04T10:09:30Z</time>
      </trkpt>
      <trkpt lat="48.30565" lon="7.25188">
        <ele>682</ele>
        <time>2020-03-04T10:10:31Z</time>
      </trkpt>
      <trkpt lat="48.30541" lon="7.25171">
        <ele>679</ele>
        <time>2020-03-04T10:10:46Z</time>
      </trkpt>
      <trkpt lat="48.30538" lon="7.25146">
        <ele>612</ele>
        <time>2020-03-04T10:11:15Z</time>
      </trkpt>
      <trkpt lat="48.30516" lon="7.25142">
        <ele>620</ele>
        <time>2020-03-04T10:11:30Z</time>
      </trkpt>
      <trkpt lat="48.30514" lon="7.25119">
        <ele>619</ele>
        <time>2020-03-04T10:11:47Z</time>
      </trkpt>
      <trkpt lat="48.30491" lon="7.25087">
        <ele>619</ele>
        <time>2020-03-04T10:12:08Z</time>
      </trkpt>
      <trkpt lat="48.30474" lon="7.25102">
        <ele>636</ele>
        <time>2020-03-04T10:12:22Z</time>
      </trkpt>
      <trkpt lat="48.30439" lon="7.25066">
        <ele>687</ele>
        <time>2020-03-04T10:14:08Z</time>
      </trkpt>
      <trkpt lat="48.30421" lon="7.25032">
        <ele>682</ele>
        <time>2020-03-04T10:14:51Z</time>
      </trkpt>
      <trkpt lat="48.30403" lon="7.25024">
        <ele>624</ele>
        <time>2020-03-04T10:15:39Z</time>
      </trkpt>
      <trkpt lat="48.3042" lon="7.24964">
        <ele>665</ele>
        <time>2020-03-04T10:20:37Z</time>
      </trkpt>
      <trkpt lat="48.30439" lon="7.24912">
        <ele>690</ele>
        <time>2020-03-04T10:21:20Z</time>
      </trkpt>
      <trkpt lat="48.3043" lon="7.24861">
        <ele>695</ele>
        <time>2020-03-04T10:21:50Z</time>
      </trkpt>
      <trkpt lat="48.3041" lon="7.248">
        <ele>695</ele>
        <time>2020-03-04T10:22:55Z</time>
      </trkpt>
      <trkpt lat="48.3039" lon="7.24717">
        <ele>694</ele>
        <time>2020-03-04T10:24:02Z</time>
      </trkpt>
      <trkpt lat="48.30364" lon="7.24681">
        <ele>611</ele>
        <time>2020-03-04T10:24:32Z</time>
      </trkpt>
      <trkpt lat="48.30339" lon="7.24642">
        <ele>645</ele>
        <time>2020-03-04T10:25:16Z</time>
      </trkpt>
      <trkpt lat="48.30333" lon="7.24567">
        <ele>671</ele>
        <time>2020-03-04T10:26:17Z</time>
      </trkpt>
      <trkpt lat="48.30316" lon="7.24523">
        <ele>699</ele>
        <time>2020-03-04T10:26:46Z</time>
      </trkpt>
      <trkpt lat="48.30296" lon="7.24411">
        <ele>711</ele>
        <time>2020-03-04T10:28:55Z</time>
      </trkpt>
      <trkpt lat="48.30277" lon="7.24381">
        <ele>706</ele>
        <time>2020-03-04T10:30:08Z</time>
      </trkpt>
      <trkpt lat="48.30279" lon="7.24328">
        <ele>701</ele>
        <time>2020-03-04T10:30:31Z</time>
      </trkpt>
      <trkpt lat="48.30273" lon="7.24264">
        <ele>710</ele>
        <time>2020-03-04T10:31:13Z</time>
      </trkpt>
      <trkpt lat="48.30302" lon="7.24202">
        <ele>710</ele>
        <time>2020-03-04T10:32:03Z</time>
      </trkpt>
      <trkpt lat="48.30325" lon="7.24142">
        <ele>705</ele>
        <time>2020-03-04T10:32:58Z</time>
      </trkpt>
      <trkpt lat="48.30354" lon="7.24125">
        <ele>704</ele>
        <time>2020-03-04T10:33:38Z</time>
      </trkpt>
      <trkpt lat="48.30406" lon="7.24072">
        <ele>708</ele>
        <time>2020-03-04T10:37:23Z</time>
      </trkpt>
      <trkpt lat="48.30439" lon="7.24042">
        <ele>716</ele>
        <time>2020-03-04T10:38:09Z</time>
      </trkpt>
      <trkpt lat="48.30477" lon="7.24">
        <ele>719</ele>
        <time>2020-03-04T10:39:20Z</time>
      </trkpt>
      <trkpt lat="48.30515" lon="7.23968">
        <ele>737</ele>
        <time>2020-03-04T10:41:20Z</time>
      </trkpt>
      <trkpt lat="48.30506" lon="7.23908">
        <ele>743</ele>
        <time>2020-03-04T10:42:20Z</time>
      </trkpt>
      <trkpt lat="48.30485" lon="7.23873">
        <ele>740</ele>
        <time>2020-03-04T10:42:41Z</time>
      </trkpt>
      <trkpt lat="48.3052" lon="7.23834">
        <ele>740</ele>
        <time>2020-03-04T10:43:10Z</time>
      </trkpt>
      <trkpt lat="48.30524" lon="7.23772">
        <ele>739</ele>
        <time>2020-03-04T10:43:56Z</time>
      </trkpt>
      <trkpt lat="48.30509" lon="7.23728">
        <ele>742</ele>
        <time>2020-03-04T10:44:26Z</time>
      </trkpt>
      <trkpt lat="48.30519" lon="7.23685">
        <ele>739</ele>
        <time>2020-03-04T10:44:54Z</time>
      </trkpt>
      <trkpt lat="48.30571" lon="7.23659">
        <ele>731</ele>
        <time>2020-03-04T10:45:52Z</time>
      </trkpt>
      <trkpt lat="48.30591" lon="7.23655">
        <ele>656</ele>
        <time>2020-03-04T10:46:14Z</time>
      </trkpt>
      <trkpt lat="48.3062" lon="7.23687">
        <ele>660</ele>
        <time>2020-03-04T10:47:31Z</time>
      </trkpt>
      <trkpt lat="48.30627" lon="7.23703">
        <ele>722</ele>
        <time>2020-03-04T10:53:27Z</time>
      </trkpt>
      <trkpt lat="48.30596" lon="7.23628">
        <ele>615</ele>
        <time>2020-03-04T11:00:31Z</time>
      </trkpt>
      <trkpt lat="48.30595" lon="7.23588">
        <ele>655</ele>
        <time>2020-03-04T11:01:15Z</time>
      </trkpt>
      <trkpt lat="48.30597" lon="7.23533">
        <ele>661</ele>
        <time>2020-03-04T11:01:44Z</time>
      </trkpt>
      <trkpt lat="48.30603" lon="7.23424">
        <ele>678</ele>
        <time>2020-03-04T11:02:44Z</time>
      </trkpt>
      <trkpt lat="48.30625" lon="7.23358">
        <ele>681</ele>
        <time>2020-03-04T11:03:29Z</time>
      </trkpt>
      <trkpt lat="48.30609" lon="7.23301">
        <ele>686</ele>
        <time>2020-03-04T11:04:01Z</time>
      </trkpt>
      <trkpt lat="48.30599" lon="7.23243">
        <ele>688</ele>
        <time>2020-03-04T11:04:44Z</time>
      </trkpt>
      <trkpt lat="48.30605" lon="7.23197">
        <ele>683</ele>
        <time>2020-03-04T11:05:02Z</time>
      </trkpt>
      <trkpt lat="48.30625" lon="7.23041">
        <ele>680</ele>
        <time>2020-03-04T11:06:31Z</time>
      </trkpt>
      <trkpt lat="48.30643" lon="7.22946">
        <ele>679</ele>
        <time>2020-03-04T11:07:24Z</time>
      </trkpt>
      <trkpt lat="48.30656" lon="7.22907">
        <ele>510</ele>
        <time>2020-03-04T11:07:50Z</time>
      </trkpt>
      <trkpt lat="48.30662" lon="7.22866">
        <ele>518</ele>
        <time>2020-03-04T11:08:28Z</time>
      </trkpt>
      <trkpt lat="48.30687" lon="7.22814">
        <ele>594</ele>
        <time>2020-03-04T11:09:21Z</time>
      </trkpt>
      <trkpt lat="48.30692" lon="7.22796">
        <ele>660</ele>
        <time>2020-03-04T11:09:36Z</time>
      </trkpt>
      <trkpt lat="48.30704" lon="7.22748">
        <ele>648</ele>
        <time>2020-03-04T11:09:58Z</time>
      </trkpt>
      <trkpt lat="48.30708" lon="7.22726">
        <ele>652</ele>
        <time>2020-03-04T11:10:12Z</time>
      </trkpt>
      <trkpt lat="48.30719" lon="7.22699">
        <ele>659</ele>
        <time>2020-03-04T11:10:27Z</time>
      </trkpt>
      <trkpt lat="48.3077" lon="7.22656">
        <ele>664</ele>
        <time>2020-03-04T11:11:14Z</time>
      </trkpt>
      <trkpt lat="48.30802" lon="7.22628">
        <ele>668</ele>
        <time>2020-03-04T11:11:48Z</time>
      </trkpt>
      <trkpt lat="48.30835" lon="7.22555">
        <ele>667</ele>
        <time>2020-03-04T11:12:27Z</time>
      </trkpt>
      <trkpt lat="48.30869" lon="7.22531">
        <ele>668</ele>
        <time>2020-03-04T11:12:59Z</time>
      </trkpt>
      <trkpt lat="48.30896" lon="7.22483">
        <ele>568</ele>
        <time>2020-03-04T11:14:18Z</time>
      </trkpt>
      <trkpt lat="48.3085" lon="7.2244">
        <ele>662</ele>
        <time>2020-03-04T11:17:02Z</time>
      </trkpt>
      <trkpt lat="48.30838" lon="7.22407">
        <ele>663</ele>
        <time>2020-03-04T11:17:24Z</time>
      </trkpt>
      <trkpt lat="48.30803" lon="7.22386">
        <ele>646</ele>
        <time>2020-03-04T11:17:54Z</time>
      </trkpt>
      <trkpt lat="48.30764" lon="7.2235">
        <ele>646</ele>
        <time>2020-03-04T11:18:37Z</time>
      </trkpt>
      <trkpt lat="48.30739" lon="7.22319">
        <ele>646</ele>
        <time>2020-03-04T11:19:07Z</time>
      </trkpt>
      <trkpt lat="48.30728" lon="7.22275">
        <ele>631</ele>
        <time>2020-03-04T11:19:57Z</time>
      </trkpt>
      <trkpt lat="48.307" lon="7.22282">
        <ele>637</ele>
        <time>2020-03-04T11:20:28Z</time>
      </trkpt>
      <trkpt lat="48.30672" lon="7.22223">
        <ele>629</ele>
        <time>2020-03-04T11:21:50Z</time>
      </trkpt>
      <trkpt lat="48.30662" lon="7.22193">
        <ele>630</ele>
        <time>2020-03-04T11:22:05Z</time>
      </trkpt>
      <trkpt lat="48.30667" lon="7.22061">
        <ele>601</ele>
        <time>2020-03-04T11:24:19Z</time>
      </trkpt>
      <trkpt lat="48.30687" lon="7.22024">
        <ele>562</ele>
        <time>2020-03-04T11:24:43Z</time>
      </trkpt>
      <trkpt lat="48.30663" lon="7.21949">
        <ele>581</ele>
        <time>2020-03-04T11:25:30Z</time>
      </trkpt>
      <trkpt lat="48.30651" lon="7.21903">
        <ele>589</ele>
        <time>2020-03-04T11:25:57Z</time>
      </trkpt>
      <trkpt lat="48.30612" lon="7.21892">
        <ele>580</ele>
        <time>2020-03-04T11:26:45Z</time>
      </trkpt>
      <trkpt lat="48.30572" lon="7.21887">
        <ele>561</ele>
      </trkpt>
      <trkpt lat="48.30545" lon="7.21848">
        <ele>564</ele>
        <time>2020-03-04T11:27:44Z</time>
      </trkpt>
      <trkpt lat="48.30525" lon="7.21842">
        <ele>562</ele>
        <time>2020-03-04T11:27:58Z</time>
      </trkpt>
      <trkpt lat="48.30484" lon="7.21789">
        <ele>549</ele>
        <time>2020-03-04T11:28:44Z</time>
      </trkpt>
      <trkpt lat="48.30459" lon="7.21732">
        <ele>548</ele>
        <time>2020-03-04T11:29:14Z</time>
      </trkpt>
      <trkpt lat="48.30436" lon="7.21694">
        <ele>548</ele>
        <time>2020-03-04T11:29:42Z</time>
      </trkpt>
      <trkpt lat="48.30426" lon="7.21637">
        <ele>544</ele>
        <time>2020-03-04T11:30:13Z</time>
      </trkpt>
      <trkpt lat="48.30396" lon="7.21596">
        <ele>544</ele>
        <time>2020-03-04T11:30:45Z</time>
      </trkpt>
      <trkpt lat="48.30394" lon="7.21568">
        <ele>538</ele>
        <time>2020-03-04T11:30:58Z</time>
      </trkpt>
      <trkpt lat="48.30383" lon="7.21523">
        <ele>539</ele>
        <time>2020-03-04T11:31:21Z</time>
      </trkpt>
      <trkpt lat="48.30381" lon="7.21495">
        <ele>538</ele>
      </trkpt>
      <trkpt lat="48.30353" lon="7.21465">
        <ele>538</ele>
        <time>2020-03-04T11:32:28Z</time>
      </trkpt>
      <trkpt lat="48.30319" lon="7.21463">
        <ele>506</ele>
      </trkpt>
      <trkpt lat="48.30308" lon="7.21414">
        <ele>533</ele>
        <time>2020-03-04T11:32:40Z</time>
      </trkpt>
      <trkpt lat="48.30328" lon="7.21347">
        <ele>525</ele>
        <time>2020-03-04T11:33:27Z</time>
      </trkpt>
      <trkpt lat="48.3034" lon="7.21312">
        <ele>516</ele>
        <time>2020-03-04T11:33:42Z</time>
      </trkpt>
      <trkpt lat="48.30356" lon="7.212">
        <ele>512</ele>
        <time>2020-03-04T11:34:42Z</time>
      </trkpt>
      <trkpt lat="48.30364" lon="7.21066">
        <ele>509.4</ele>
      </trkpt>
      <trkpt lat="48.30351" lon="7.21028">
        <ele>503</ele>
        <time>2020-03-04T11:42:37Z</time>
      </trkpt>
      <trkpt lat="48.30315" lon="7.21053">
        <ele>505</ele>
        <time>2020-03-04T11:43:06Z</time>
      </trkpt>
      <trkpt lat="48.30302" lon="7.21103">
        <ele>495</ele>
        <time>2020-03-04T11:43:37Z</time>
      </trkpt>
      <trkpt lat="48.30288" lon="7.21158">
        <ele>492</ele>
        <time>2020-03-04T12:10:56Z</time>
      </trkpt>
      <trkpt lat="48.30249" lon="7.21228">
        <ele>487</ele>
        <time>2020-03-04T12:11:40Z</time>
      </trkpt>
      <trkpt lat="48.30225" lon="7.2125">
        <ele>481</ele>
        <time>2020-03-04T12:12:12Z</time>
      </trkpt>
      <trkpt lat="48.30169" lon="7.213">
        <ele>468</ele>
        <time>2020-03-04T12:13:10Z</time>
      </trkpt>
      <trkpt lat="48.30142" lon="7.21326">
        <ele>464</ele>
        <time>2020-03-04T12:13:31Z</time>
      </trkpt>
      <trkpt lat="48.3012" lon="7.2134">
        <ele>468</ele>
        <time>2020-03-04T12:13:54Z</time>
      </trkpt>
      <trkpt lat="48.30084" lon="7.21373">
        <ele>465</ele>
        <time>2020-03-04T12:14:14Z</time>
      </trkpt>
      <trkpt lat="48.30042" lon="7.21378">
        <ele>458</ele>
        <time>2020-03-04T12:15:06Z</time>
      </trkpt>
      <trkpt lat="48.30018" lon="7.2141">
        <ele>451</ele>
        <time>2020-03-04T12:15:36Z</time>
      </trkpt>
      <trkpt lat="48.29993" lon="7.21448">
        <ele>445</ele>
        <time>2020-03-04T12:16:05Z</time>
      </trkpt>
      <trkpt lat="48.29928" lon="7.21496">
        <ele>444</ele>
        <time>2020-03-04T12:17:06Z</time>
      </trkpt>
      <trkpt lat="48.29895" lon="7.21519">
        <ele>437</ele>
        <time>2020-03-04T12:17:36Z</time>
      </trkpt>
      <trkpt lat="48.29876" lon="7.21512">
        <ele>436</ele>
        <time>2020-03-04T12:17:57Z</time>
      </trkpt>
      <trkpt lat="48.29836" lon="7.21532">
        <ele>432</ele>
        <time>2020-03-04T12:18:40Z</time>
      </trkpt>
      <trkpt lat="48.29801" lon="7.21558">
        <ele>435</ele>
        <time>2020-03-04T12:19:13Z</time>
      </trkpt>
      <trkpt lat="48.29775" lon="7.21596">
        <ele>446</ele>
        <time>2020-03-04T12:19:55Z</time>
      </trkpt>
      <trkpt lat="48.29738" lon="7.21611">
        <ele>451</ele>
        <time>2020-03-04T12:20:26Z</time>
      </trkpt>
      <trkpt lat="48.29684" lon="7.21634">
        <ele>450</ele>
        <time>2020-03-04T12:21:20Z</time>
      </trkpt>
      <trkpt lat="48.29645" lon="7.21652">
        <ele>453</ele>
        <time>2020-03-04T12:21:56Z</time>
      </trkpt>
      <trkpt lat="48.29584" lon="7.21694">
        <ele>459</ele>
        <time>2020-03-04T12:22:41Z</time>
      </trkpt>
      <trkpt lat="48.2953" lon="7.21709">
        <ele>463</ele>
        <time>2020-03-04T12:23:41Z</time>
      </trkpt>
      <trkpt lat="48.2948" lon="7.21733">
        <ele>483</ele>
        <time>2020-03-04T12:24:31Z</time>
      </trkpt>
      <trkpt lat="48.29444" lon="7.21667">
        <ele>475</ele>
        <time>2020-03-04T12:25:17Z</time>
      </trkpt>
      <trkpt lat="48.29414" lon="7.2165">
        <ele>482</ele>
        <time>2020-03-04T12:27:13Z</time>
      </trkpt>
      <trkpt lat="48.29377" lon="7.21657">
        <ele>508.6</ele>
      </trkpt>
      <trkpt lat="48.29337" lon="7.2164">
        <ele>508.3</ele>
      </trkpt>
      <trkpt lat="48.29304" lon="7.2161">
        <ele>511.9</ele>
      </trkpt>
      <trkpt lat="48.29268" lon="7.21646">
        <ele>504.9</ele>
      </trkpt>
      <trkpt lat="48.29226" lon="7.21614">
        <ele>514.1</ele>
      </trkpt>
      <trkpt lat="48.29191" lon="7.21561">
        <ele>533.3</ele>
      </trkpt>
      <trkpt lat="48.29138" lon="7.21593">
        <ele>512</ele>
        <time>2020-03-04T12:32:25Z</time>
      </trkpt>
      <trkpt lat="48.29073" lon="7.21589">
        <ele>551.8</ele>
      </trkpt>
      <trkpt lat="48.29032" lon="7.21598">
        <ele>560.5</ele>
      </trkpt>
      <trkpt lat="48.2905" lon="7.21661">
        <ele>563</ele>
        <time>2020-03-04T12:38:45Z</time>
      </trkpt>
      <trkpt lat="48.29077" lon="7.21714">
        <ele>556.7</ele>
      </trkpt>
      <trkpt lat="48.29092" lon="7.21754">
        <ele>549.5</ele>
      </trkpt>
      <trkpt lat="48.2906" lon="7.21759">
        <ele>553</ele>
        <time>2020-03-04T12:40:14Z</time>
      </trkpt>
      <trkpt lat="48.2903" lon="7.21733">
        <ele>455</ele>
        <time>2020-03-04T12:40:55Z</time>
      </trkpt>
      <trkpt lat="48.29011" lon="7.21775">
        <ele>488</ele>
        <time>2020-03-04T12:41:30Z</time>
      </trkpt>
      <trkpt lat="48.28991" lon="7.21798">
        <ele>564.5</ele>
      </trkpt>
      <trkpt lat="48.2898" lon="7.21816">
        <ele>536</ele>
        <time>2020-03-04T12:42:09Z</time>
      </trkpt>
      <trkpt lat="48.28959" lon="7.21789">
        <ele>543</ele>
        <time>2020-03-04T12:42:32Z</time>
      </trkpt>
      <trkpt lat="48.28912" lon="7.21771">
        <ele>545</ele>
        <time>2020-03-04T12:43:16Z</time>
      </trkpt>
      <trkpt lat="48.28842" lon="7.21806">
        <ele>572.5</ele>
      </trkpt>
      <trkpt lat="48.2879" lon="7.21854">
        <ele>534</ele>
        <time>2020-03-04T12:44:54Z</time>
      </trkpt>
      <trkpt lat="48.28766" lon="7.2185">
        <ele>579</ele>
        <time>2020-03-04T12:46:09Z</time>
      </trkpt>
      <trkpt lat="48.2872" lon="7.2183">
        <ele>593</ele>
        <time>2020-03-04T12:55:24Z</time>
      </trkpt>
      <trkpt lat="48.28692" lon="7.21832">
        <ele>588</ele>
        <time>2020-03-04T12:55:45Z</time>
      </trkpt>
      <trkpt lat="48.28661" lon="7.21857">
        <ele>584</ele>
      </trkpt>
      <trkpt lat="48.2867" lon="7.21906">
        <ele>589</ele>
        <time>2020-03-04T12:57:12Z</time>
      </trkpt>
      <trkpt lat="48.28677" lon="7.21949">
        <ele>598</ele>
        <time>2020-03-04T12:57:47Z</time>
      </trkpt>
      <trkpt lat="48.28669" lon="7.22017">
        <ele>617</ele>
        <time>2020-03-04T12:58:33Z</time>
      </trkpt>
      <trkpt lat="48.28627" lon="7.22043">
        <ele>624</ele>
        <time>2020-03-04T12:59:20Z</time>
      </trkpt>
      <trkpt lat="48.28589" lon="7.22067">
        <ele>618</ele>
        <time>2020-03-04T13:00:08Z</time>
      </trkpt>
      <trkpt lat="48.28556" lon="7.22058">
        <ele>611.4</ele>
      </trkpt>
      <trkpt lat="48.28488" lon="7.22067">
        <ele>555</ele>
        <time>2020-03-04T13:01:37Z</time>
      </trkpt>
      <trkpt lat="48.28337" lon="7.22172">
        <ele>588</ele>
        <time>2020-03-04T13:04:33Z</time>
      </trkpt>
      <trkpt lat="48.28313" lon="7.22162">
        <ele>589</ele>
        <time>2020-03-04T13:05:28Z</time>
      </trkpt>
      <trkpt lat="48.28283" lon="7.22179">
        <ele>586</ele>
        <time>2020-03-04T13:05:59Z</time>
      </trkpt>
      <trkpt lat="48.28264" lon="7.22163">
        <ele>584</ele>
        <time>2020-03-04T13:06:50Z</time>
      </trkpt>
      <trkpt lat="48.28242" lon="7.22199">
        <ele>598</ele>
        <time>2020-03-04T13:09:35Z</time>
      </trkpt>
      <trkpt lat="48.28212" lon="7.22197">
        <ele>583</ele>
        <time>2020-03-04T13:10:29Z</time>
      </trkpt>
      <trkpt lat="48.28183" lon="7.22238">
        <ele>576</ele>
        <time>2020-03-04T13:11:41Z</time>
      </trkpt>
      <trkpt lat="48.28167" lon="7.2224">
        <ele>575</ele>
        <time>2020-03-04T13:12:19Z</time>
      </trkpt>
      <trkpt lat="48.28151" lon="7.22287">
        <ele>584.8</ele>
      </trkpt>
      <trkpt lat="48.28127" lon="7.22353">
        <ele>495</ele>
        <time>2020-03-04T13:14:29Z</time>
      </trkpt>
      <trkpt lat="48.28125" lon="7.22407">
        <ele>519</ele>
        <time>2020-03-04T13:15:14Z</time>
      </trkpt>
      <trkpt lat="48.2813" lon="7.22478">
        <ele>536</ele>
        <time>2020-03-04T13:16:01Z</time>
      </trkpt>
      <trkpt lat="48.28108" lon="7.22535">
        <ele>547</ele>
      </trkpt>
      <trkpt lat="48.28036" lon="7.22504">
        <ele>550</ele>
      </trkpt>
      <trkpt lat="48.27982" lon="7.22534">
        <ele>557</ele>
      </trkpt>
      <trkpt lat="48.27961" lon="7.22661">
        <ele>550</ele>
      </trkpt>
      <trkpt lat="48.27954" lon="7.22739">
        <ele>548</ele>
      </trkpt>
      <trkpt lat="48.27971" lon="7.22804">
        <ele>550</ele>
      </trkpt>
      <trkpt lat="48.27939" lon="7.22769">
        <ele>552</ele>
      </trkpt>
      <trkpt lat="48.27924" lon="7.22684">
        <ele>554</ele>
      </trkpt>
      <trkpt lat="48.27837" lon="7.22619">
        <ele>570</ele>
      </trkpt>
      <trkpt lat="48.27807" lon="7.2279">
        <ele>569</ele>
        <time>2020-03-04T13:28:07Z</time>
      </trkpt>
      <trkpt lat="48.27798" lon="7.22823">
        <ele>576</ele>
        <time>2020-03-04T13:29:50Z</time>
      </trkpt>
      <trkpt lat="48.27795" lon="7.22899">
        <ele>580</ele>
        <time>2020-03-04T13:30:58Z</time>
      </trkpt>
      <trkpt lat="48.27791" lon="7.22954">
        <ele>602</ele>
        <time>2020-03-04T13:31:59Z</time>
      </trkpt>
      <trkpt lat="48.27789" lon="7.22999">
        <ele>599</ele>
        <time>2020-03-04T13:32:30Z</time>
      </trkpt>
      <trkpt lat="48.27783" lon="7.23078">
        <ele>590</ele>
        <time>2020-03-04T13:33:15Z</time>
      </trkpt>
      <trkpt lat="48.27786" lon="7.23114">
        <ele>590</ele>
        <time>2020-03-04T13:33:31Z</time>
      </trkpt>
      <trkpt lat="48.27774" lon="7.23141">
        <ele>586</ele>
        <time>2020-03-04T13:33:46Z</time>
      </trkpt>
      <trkpt lat="48.27755" lon="7.2317">
        <ele>593</ele>
        <time>2020-03-04T13:34:14Z</time>
      </trkpt>
      <trkpt lat="48.27745" lon="7.23218">
        <ele>600</ele>
        <time>2020-03-04T13:34:45Z</time>
      </trkpt>
      <trkpt lat="48.27723" lon="7.23263">
        <ele>607</ele>
        <time>2020-03-04T13:35:17Z</time>
      </trkpt>
      <trkpt lat="48.2773" lon="7.23361">
        <ele>540</ele>
        <time>2020-03-04T13:36:46Z</time>
      </trkpt>
      <trkpt lat="48.27749" lon="7.23453">
        <ele>612</ele>
      </trkpt>
      <trkpt lat="48.27689" lon="7.23466">
        <ele>605.4</ele>
      </trkpt>
      <trkpt lat="48.27644" lon="7.23412">
        <ele>591.9</ele>
      </trkpt>
      <trkpt lat="48.27654" lon="7.23473">
        <ele>582</ele>
      </trkpt>
      <trkpt lat="48.27698" lon="7.2354">
        <ele>599.5</ele>
      </trkpt>
      <trkpt lat="48.27681" lon="7.23582">
        <ele>541</ele>
        <time>2020-03-04T13:44:43Z</time>
      </trkpt>
      <trkpt lat="48.2768" lon="7.23611">
        <ele>551</ele>
        <time>2020-03-04T13:45:01Z</time>
      </trkpt>
      <trkpt lat="48.27682" lon="7.23654">
        <ele>566</ele>
        <time>2020-03-04T13:45:23Z</time>
      </trkpt>
      <trkpt lat="48.27673" lon="7.23692">
        <ele>574</ele>
        <time>2020-03-04T13:45:45Z</time>
      </trkpt>
      <trkpt lat="48.27671" lon="7.23738">
        <ele>568</ele>
        <time>2020-03-04T13:46:09Z</time>
      </trkpt>
      <trkpt lat="48.27638" lon="7.23773">
        <ele>592</ele>
      </trkpt>
      <trkpt lat="48.27605" lon="7.23775">
        <ele>573</ele>
        <time>2020-03-04T13:47:06Z</time>
      </trkpt>
      <trkpt lat="48.27586" lon="7.2379">
        <ele>585</ele>
        <time>2020-03-04T13:47:28Z</time>
      </trkpt>
      <trkpt lat="48.27533" lon="7.23814">
        <ele>576.8</ele>
      </trkpt>
      <trkpt lat="48.27503" lon="7.23887">
        <ele>581.1</ele>
      </trkpt>
      <trkpt lat="48.2759" lon="7.23881">
        <ele>444</ele>
        <time>2020-03-04T13:51:51Z</time>
      </trkpt>
      <trkpt lat="48.27617" lon="7.23917">
        <ele>484</ele>
        <time>2020-03-04T13:52:06Z</time>
      </trkpt>
      <trkpt lat="48.27643" lon="7.23933">
        <ele>478</ele>
        <time>2020-03-04T13:54:00Z</time>
      </trkpt>
      <trkpt lat="48.27664" lon="7.24011">
        <ele>506</ele>
        <time>2020-03-04T13:59:12Z</time>
      </trkpt>
      <trkpt lat="48.27705" lon="7.24182">
        <ele>554</ele>
        <time>2020-03-04T14:01:20Z</time>
      </trkpt>
      <trkpt lat="48.27735" lon="7.24253">
        <ele>554</ele>
        <time>2020-03-04T14:01:57Z</time>
      </trkpt>
      <trkpt lat="48.27748" lon="7.24338">
        <ele>486</ele>
        <time>2020-03-04T14:03:04Z</time>
      </trkpt>
      <trkpt lat="48.2776" lon="7.24414">
        <ele>516</ele>
        <time>2020-03-04T14:03:36Z</time>
      </trkpt>
      <trkpt lat="48.27776" lon="7.24481">
        <ele>521</ele>
        <time>2020-03-04T14:05:33Z</time>
      </trkpt>
      <trkpt lat="48.27779" lon="7.24543">
        <ele>570</ele>
        <time>2020-03-04T14:06:10Z</time>
      </trkpt>
      <trkpt lat="48.27777" lon="7.24581">
        <ele>486</ele>
        <time>2020-03-04T14:07:15Z</time>
      </trkpt>
      <trkpt lat="48.27784" lon="7.24616">
        <ele>470</ele>
        <time>2020-03-04T14:07:29Z</time>
      </trkpt>
      <trkpt lat="48.27775" lon="7.24657">
        <ele>459</ele>
        <time>2020-03-04T14:08:07Z</time>
      </trkpt>
      <trkpt lat="48.27743" lon="7.24689">
        <ele>406</ele>
        <time>2020-03-04T14:08:53Z</time>
      </trkpt>
      <trkpt lat="48.27733" lon="7.24722">
        <ele>510</ele>
        <time>2020-03-04T14:10:14Z</time>
      </trkpt>
      <trkpt lat="48.2771" lon="7.24777">
        <ele>542</ele>
        <time>2020-03-04T14:10:36Z</time>
      </trkpt>
      <trkpt lat="48.2771" lon="7.24818">
        <ele>542</ele>
        <time>2020-03-04T14:10:55Z</time>
      </trkpt>
      <trkpt lat="48.27673" lon="7.24904">
        <ele>529</ele>
        <time>2020-03-04T14:12:12Z</time>
      </trkpt>
      <trkpt lat="48.27634" lon="7.24983">
        <ele>539</ele>
        <time>2020-03-04T14:13:24Z</time>
      </trkpt>
      <trkpt lat="48.27607" lon="7.25023">
        <ele>543</ele>
        <time>2020-03-04T14:14:19Z</time>
      </trkpt>
      <trkpt lat="48.27559" lon="7.2512">
        <ele>445</ele>
        <time>2020-03-04T14:16:14Z</time>
      </trkpt>
      <trkpt lat="48.27534" lon="7.25151">
        <ele>474</ele>
        <time>2020-03-04T14:16:50Z</time>
      </trkpt>
      <trkpt lat="48.2753" lon="7.25182">
        <ele>491</ele>
        <time>2020-03-04T14:17:09Z</time>
      </trkpt>
      <trkpt lat="48.27496" lon="7.2527">
        <ele>492</ele>
        <time>2020-03-04T14:18:09Z</time>
      </trkpt>
      <trkpt lat="48.27482" lon="7.25295">
        <ele>501</ele>
        <time>2020-03-04T14:18:30Z</time>
      </trkpt>
      <trkpt lat="48.27475" lon="7.25312">
        <ele>465</ele>
        <time>2020-03-04T14:23:25Z</time>
      </trkpt>
      <trkpt lat="48.27438" lon="7.25283">
        <ele>420</ele>
        <time>2020-03-04T14:24:10Z</time>
      </trkpt>
      <trkpt lat="48.27407" lon="7.25283">
        <ele>433</ele>
        <time>2020-03-04T14:25:25Z</time>
      </trkpt>
      <trkpt lat="48.27377" lon="7.25293">
        <ele>354</ele>
        <time>2020-03-04T14:26:03Z</time>
      </trkpt>
      <trkpt lat="48.27342" lon="7.25308">
        <ele>357</ele>
        <time>2020-03-04T14:26:46Z</time>
      </trkpt>
      <trkpt lat="48.27313" lon="7.25325">
        <ele>383</ele>
        <time>2020-03-04T14:27:11Z</time>
      </trkpt>
      <trkpt lat="48.27291" lon="7.25349">
        <ele>455.9</ele>
      </trkpt>
      <trkpt lat="48.27294" lon="7.25404">
        <ele>397</ele>
        <time>2020-03-04T14:28:13Z</time>
      </trkpt>
      <trkpt lat="48.2731" lon="7.25447">
        <ele>425</ele>
        <time>2020-03-04T14:28:45Z</time>
      </trkpt>
      <trkpt lat="48.27339" lon="7.2558">
        <ele>355</ele>
        <time>2020-03-04T14:30:14Z</time>
      </trkpt>
      <trkpt lat="48.27338" lon="7.25639">
        <ele>413</ele>
        <time>2020-03-04T14:30:46Z</time>
      </trkpt>
      <trkpt lat="48.27311" lon="7.25672">
        <ele>427</ele>
        <time>2020-03-04T14:31:07Z</time>
      </trkpt>
      <trkpt lat="48.27288" lon="7.257">
        <ele>440</ele>
        <time>2020-03-04T14:31:41Z</time>
      </trkpt>
      <trkpt lat="48.2726" lon="7.25717">
        <ele>442</ele>
        <time>2020-03-04T14:32:10Z</time>
      </trkpt>
      <trkpt lat="48.27246" lon="7.25753">
        <ele>431</ele>
        <time>2020-03-04T14:32:47Z</time>
      </trkpt>
      <trkpt lat="48.2725" lon="7.25851">
        <ele>419</ele>
      </trkpt>
      <trkpt lat="48.27318" lon="7.25856">
        <ele>409</ele>
        <time>2020-03-04T14:34:43Z</time>
      </trkpt>
      <trkpt lat="48.27369" lon="7.25889">
        <ele>441</ele>
      </trkpt>
      <trkpt lat="48.27383" lon="7.25931">
        <ele>415</ele>
        <time>2020-03-04T14:36:08Z</time>
      </trkpt>
      <trkpt lat="48.27387" lon="7.25991">
        <ele>428</ele>
        <time>2020-03-04T14:37:03Z</time>
      </trkpt>
      <trkpt lat="48.27379" lon="7.26028">
        <ele>431</ele>
        <time>2020-03-04T14:37:13Z</time>
      </trkpt>
      <trkpt lat="48.274" lon="7.26109">
        <ele>429</ele>
        <time>2020-03-04T14:38:04Z</time>
      </trkpt>
      <trkpt lat="48.27411" lon="7.26158">
        <ele>429</ele>
        <time>2020-03-04T14:38:31Z</time>
      </trkpt>
      <trkpt lat="48.27387" lon="7.26225">
        <ele>437</ele>
        <time>2020-03-04T14:39:16Z</time>
      </trkpt>
      <trkpt lat="48.27376" lon="7.26272">
        <ele>434</ele>
        <time>2020-03-04T14:39:47Z</time>
      </trkpt>
      <trkpt lat="48.27365" lon="7.26341">
        <ele>434</ele>
        <time>2020-03-04T14:40:30Z</time>
      </trkpt>
      <trkpt lat="48.27361" lon="7.26387">
        <ele>381</ele>
        <time>2020-03-04T14:41:03Z</time>
      </trkpt>
      <trkpt lat="48.27307" lon="7.26433">
        <ele>391</ele>
        <time>2020-03-04T14:42:04Z</time>
      </trkpt>
      <trkpt lat="48.2727" lon="7.26432">
        <ele>406</ele>
        <time>2020-03-04T14:42:31Z</time>
      </trkpt>
      <trkpt lat="48.27227" lon="7.26463">
        <ele>426</ele>
        <time>2020-03-04T14:43:15Z</time>
      </trkpt>
      <trkpt lat="48.27219" lon="7.26516">
        <ele>426</ele>
        <time>2020-03-04T14:43:44Z</time>
      </trkpt>
      <trkpt lat="48.27243" lon="7.26567">
        <ele>424</ele>
        <time>2020-03-04T14:44:23Z</time>
      </trkpt>
      <trkpt lat="48.27275" lon="7.26622">
        <ele>417</ele>
        <time>2020-03-04T14:45:07Z</time>
      </trkpt>
      <trkpt lat="48.27258" lon="7.26661">
        <ele>425</ele>
        <time>2020-03-04T14:45:28Z</time>
      </trkpt>
      <trkpt lat="48.27248" lon="7.26699">
        <ele>422</ele>
        <time>2020-03-04T14:45:53Z</time>
      </trkpt>
      <trkpt lat="48.27227" lon="7.26744">
        <ele>370</ele>
        <time>2020-03-04T14:46:23Z</time>
      </trkpt>
      <trkpt lat="48.27212" lon="7.26832">
        <ele>376</ele>
        <time>2020-03-04T14:47:23Z</time>
      </trkpt>
      <trkpt lat="48.27215" lon="7.26932">
        <ele>401</ele>
      </trkpt>
      <trkpt lat="48.27249" lon="7.26944">
        <ele>408</ele>
        <time>2020-03-04T14:48:54Z</time>
      </trkpt>
      <trkpt lat="48.27321" lon="7.26954">
        <ele>417</ele>
      </trkpt>
      <trkpt lat="48.27397" lon="7.26923">
        <ele>422</ele>
        <time>2020-03-04T14:50:44Z</time>
      </trkpt>
      <trkpt lat="48.27422" lon="7.26952">
        <ele>418</ele>
        <time>2020-03-04T14:51:41Z</time>
      </trkpt>
      <trkpt lat="48.27427" lon="7.26982">
        <ele>422</ele>
        <time>2020-03-04T14:52:45Z</time>
      </trkpt>
      <trkpt lat="48.27418" lon="7.2707">
        <ele>374</ele>
        <time>2020-03-04T14:54:36Z</time>
      </trkpt>
      <trkpt lat="48.27443" lon="7.27235">
        <ele>387.1</ele>
      </trkpt>
      <trkpt lat="48.27441" lon="7.27129">
        <ele>374</ele>
        <time>2020-03-04T14:58:49Z</time>
      </trkpt>
      <trkpt lat="48.27452" lon="7.27082">
        <ele>388</ele>
        <time>2020-03-04T14:59:12Z</time>
      </trkpt>
      <trkpt lat="48.27475" lon="7.27009">
        <ele>405.7</ele>
      </trkpt>
      <trkpt lat="48.27528" lon="7.26952">
        <ele>402.8</ele>
      </trkpt>
      <trkpt lat="48.27591" lon="7.26892">
        <ele>394.3</ele>
      </trkpt>
      <trkpt lat="48.27582" lon="7.26835">
        <ele>404.8</ele>
      </trkpt>
      <trkpt lat="48.27633" lon="7.26858">
        <ele>405</ele>
        <time>2020-03-04T15:09:03Z</time>
      </trkpt>
      <trkpt lat="48.27668" lon="7.2688">
        <ele>388</ele>
        <time>2020-03-04T15:10:55Z</time>
      </trkpt>
      <trkpt lat="48.27706" lon="7.26869">
        <ele>382</ele>
        <time>2020-03-04T15:11:19Z</time>
      </trkpt>
      <trkpt lat="48.27745" lon="7.26845">
        <ele>378</ele>
        <time>2020-03-04T15:12:00Z</time>
      </trkpt>
      <trkpt lat="48.27772" lon="7.26796">
        <ele>378</ele>
        <time>2020-03-04T15:12:47Z</time>
      </trkpt>
      <trkpt lat="48.27811" lon="7.2672">
        <ele>381</ele>
        <time>2020-03-04T15:13:29Z</time>
      </trkpt>
      <trkpt lat="48.27826" lon="7.26724">
        <ele>379</ele>
        <time>2020-03-04T15:13:52Z</time>
      </trkpt>
      <trkpt lat="48.27868" lon="7.26767">
        <ele>369</ele>
        <time>2020-03-04T15:15:01Z</time>
      </trkpt>
      <trkpt lat="48.27889" lon="7.26788">
        <ele>362</ele>
        <time>2020-03-04T15:16:20Z</time>
      </trkpt>
      <trkpt lat="48.27878" lon="7.26731">
        <ele>360</ele>
        <time>2020-03-04T15:16:55Z</time>
      </trkpt>
      <trkpt lat="48.27858" lon="7.26708">
        <ele>353</ele>
        <time>2020-03-04T15:17:18Z</time>
      </trkpt>
      <trkpt lat="48.27791" lon="7.2668">
        <ele>350</ele>
        <time>2020-03-04T15:18:22Z</time>
      </trkpt>
      <trkpt lat="48.2782" lon="7.26645">
        <ele>350</ele>
        <time>2020-03-04T15:18:50Z</time>
      </trkpt>
      <trkpt lat="48.27885" lon="7.26646">
        <ele>351</ele>
        <time>2020-03-04T15:19:55Z</time>
      </trkpt>
      <trkpt lat="48.27941" lon="7.26687">
        <ele>335</ele>
        <time>2020-03-04T15:21:24Z</time>
      </trkpt>
      <trkpt lat="48.27999" lon="7.26737">
        <ele>324</ele>
        <time>2020-03-04T15:22:08Z</time>
      </trkpt>
      <trkpt lat="48.28026" lon="7.26726">
        <ele>304</ele>
        <time>2020-03-04T15:22:49Z</time>
      </trkpt>
      <trkpt lat="48.2805" lon="7.26687">
        <ele>305</ele>
        <time>2020-03-04T15:23:13Z</time>
      </trkpt>
      <trkpt lat="48.28098" lon="7.26625">
        <ele>311</ele>
        <time>2020-03-04T15:24:18Z</time>
      </trkpt>
      <trkpt lat="48.28131" lon="7.26574">
        <ele>299</ele>
        <time>2020-03-04T15:25:27Z</time>
      </trkpt>
      <trkpt lat="48.28158" lon="7.26521">
        <ele>301</ele>
      </trkpt>
      <trkpt lat="48.28172" lon="7.26482">
        <ele>305.4</ele>
      </trkpt>
    </trkseg>
  </trk>
</gpx>